createdAt,value
2017-07-27T00:01:30.762Z,18.00
2017-07-27T00:03:58.425Z,18.87
2017-07-27T00:06:26.025Z,22.00
2017-07-27T00:08:53.664Z,20.87
2017-07-27T00:11:21.317Z,18.70
2017-07-27T00:13:48.941Z,16.93
2017-07-27T00:16:16.568Z,16.50
2017-07-27T00:18:44.244Z,15.87
2017-07-27T00:21:11.875Z,19.40
2017-07-27T00:23:39.508Z,17.40
2017-07-27T00:26:07.158Z,18.53
2017-07-27T00:28:34.787Z,15.30
2017-07-27T00:31:02.397Z,17.97
2017-07-27T00:33:30.075Z,14.70
2017-07-27T00:35:57.687Z,17.43
2017-07-27T00:38:25.690Z,14.50
2017-07-27T00:40:53.560Z,13.67
2017-07-27T00:43:21.618Z,17.23
2017-07-27T00:45:49.391Z,17.97
2017-07-27T00:48:17.361Z,16.83
2017-07-27T00:50:45.149Z,16.73
2017-07-27T00:53:13.091Z,20.47
2017-07-27T00:55:41.157Z,19.83
2017-07-27T00:58:08.954Z,18.73
2017-07-27T01:00:36.804Z,18.37
2017-07-27T01:03:04.661Z,20.00
2017-07-27T01:05:32.347Z,23.43
2017-07-27T01:08:00.196Z,19.50
2017-07-27T01:10:28.373Z,18.10
2017-07-27T01:12:56.226Z,17.50
2017-07-27T01:15:24.102Z,17.83
2017-07-27T01:17:51.961Z,18.10
2017-07-27T01:20:19.636Z,19.00
2017-07-27T01:22:47.496Z,18.40
2017-07-27T01:25:15.561Z,19.47
2017-07-27T01:27:43.279Z,17.47
2017-07-27T01:30:11.171Z,16.50
2017-07-27T01:32:39.178Z,17.73
2017-07-27T01:35:07.029Z,15.90
2017-07-27T01:37:34.896Z,16.80
2017-07-27T01:40:02.917Z,17.83
2017-07-27T01:42:30.852Z,15.50
2017-07-27T01:44:58.535Z,18.47
2017-07-27T01:49:57.588Z,17.77
2017-07-27T01:52:25.387Z,20.50
2017-07-27T01:54:53.121Z,18.00
2017-07-27T01:57:21.126Z,18.23
2017-07-27T01:59:48.996Z,22.17
2017-07-27T02:02:16.845Z,21.10
2017-07-27T02:04:44.789Z,19.70
2017-07-27T02:07:12.778Z,20.37
2017-07-27T02:09:40.663Z,19.80
2017-07-27T02:12:08.535Z,21.07
2017-07-27T02:14:36.374Z,21.90
2017-07-27T02:17:04.124Z,24.27
2017-07-27T02:19:32.091Z,24.30
2017-07-27T02:21:59.792Z,24.40
2017-07-27T02:24:27.648Z,22.57
2017-07-27T02:26:55.692Z,23.40
2017-07-27T02:29:23.381Z,28.80
2017-07-27T02:31:51.101Z,32.27
2017-07-27T02:34:19.128Z,34.83
2017-07-27T02:36:46.985Z,32.50
2017-07-27T02:39:14.678Z,34.13
2017-07-27T02:41:42.694Z,25.33
2017-07-27T02:44:10.394Z,24.50
2017-07-27T02:46:38.059Z,23.23
2017-07-27T02:49:05.740Z,23.33
2017-07-27T02:51:33.785Z,24.13
2017-07-27T02:54:01.501Z,23.40
2017-07-27T02:56:29.497Z,21.97
2017-07-27T02:58:57.389Z,33.70
2017-07-27T03:01:25.008Z,24.57
2017-07-27T03:03:52.684Z,23.30
2017-07-27T03:06:20.291Z,28.07
2017-07-27T03:08:47.899Z,30.17
2017-07-27T03:11:15.606Z,27.67
2017-07-27T03:13:43.244Z,24.50
2017-07-27T03:16:10.904Z,25.00
2017-07-27T03:18:38.582Z,28.30
2017-07-27T03:21:06.228Z,50.47
2017-07-27T03:23:33.843Z,23.67
2017-07-27T03:26:01.516Z,24.60
2017-07-27T03:28:29.135Z,25.37
2017-07-27T03:30:56.765Z,37.80
2017-07-27T03:33:24.418Z,47.90
2017-07-27T03:35:52.036Z,49.63
2017-07-27T03:38:19.652Z,24.37
2017-07-27T03:40:47.292Z,31.17
2017-07-27T03:43:14.916Z,39.27
2017-07-27T03:45:42.531Z,23.00
2017-07-27T03:48:10.181Z,26.50
2017-07-27T03:50:37.853Z,21.40
2017-07-27T03:53:05.452Z,26.10
2017-07-27T03:55:33.101Z,20.27
2017-07-27T03:58:00.727Z,24.27
2017-07-27T04:00:28.342Z,19.37
2017-07-27T04:02:56.019Z,26.53
2017-07-27T04:05:23.647Z,20.37
2017-07-27T04:07:51.246Z,21.43
2017-07-27T04:10:18.910Z,20.70
2017-07-27T04:12:46.541Z,15.90
2017-07-27T04:15:14.155Z,14.57
2017-07-27T04:17:41.821Z,14.80
2017-07-27T04:20:09.444Z,15.80
2017-07-27T04:22:37.075Z,13.97
2017-07-27T04:25:04.716Z,14.17
2017-07-27T04:27:32.341Z,12.97
2017-07-27T04:30:00.149Z,13.50
2017-07-27T04:32:27.836Z,15.33
2017-07-27T04:34:56.242Z,15.90
2017-07-27T04:37:23.870Z,14.40
2017-07-27T04:39:51.537Z,18.03
2017-07-27T04:42:19.159Z,17.20
2017-07-27T04:44:46.775Z,14.23
2017-07-27T04:47:14.468Z,14.97
2017-07-27T04:49:42.082Z,12.93
2017-07-27T04:52:09.691Z,12.47
2017-07-27T04:54:37.350Z,13.27
2017-07-27T04:57:16.665Z,12.70
2017-07-27T04:59:44.321Z,12.10
2017-07-27T05:02:11.965Z,11.13
2017-07-27T05:04:39.576Z,10.90
2017-07-27T05:07:07.261Z,11.57
2017-07-27T05:09:34.879Z,10.77
2017-07-27T05:12:02.497Z,11.70
2017-07-27T05:14:30.189Z,10.03
2017-07-27T05:16:57.815Z,10.00
2017-07-27T05:19:25.514Z,10.30
2017-07-27T05:21:53.192Z,10.63
2017-07-27T05:24:20.797Z,10.80
2017-07-27T05:26:48.416Z,12.67
2017-07-27T05:29:16.105Z,10.60
2017-07-27T05:31:43.722Z,10.30
2017-07-27T05:34:11.357Z,10.23
2017-07-27T05:36:39.013Z,10.33
2017-07-27T05:39:06.625Z,10.87
2017-07-27T05:41:34.256Z,9.40
2017-07-27T05:44:01.975Z,9.50
2017-07-27T05:46:29.604Z,9.20
2017-07-27T05:48:57.230Z,9.80
2017-07-27T05:51:24.941Z,11.33
2017-07-27T05:53:52.550Z,11.33
2017-07-27T05:56:20.323Z,12.93
2017-07-27T05:58:47.985Z,19.33
2017-07-27T06:01:15.601Z,19.97
2017-07-27T06:03:43.205Z,17.80
2017-07-27T06:06:10.875Z,16.90
2017-07-27T06:08:38.486Z,15.20
2017-07-27T06:11:06.110Z,12.80
2017-07-27T06:13:33.788Z,13.63
2017-07-27T06:16:01.415Z,13.20
2017-07-27T06:18:29.051Z,12.90
2017-07-27T06:20:56.759Z,13.27
2017-07-27T06:23:24.396Z,12.97
2017-07-27T06:25:52.020Z,13.20
2017-07-27T06:28:19.674Z,12.87
2017-07-27T06:30:47.374Z,13.20
2017-07-27T06:33:14.991Z,14.97
2017-07-27T06:35:42.675Z,19.80
2017-07-27T06:38:10.294Z,19.73
2017-07-27T06:40:37.908Z,18.43
2017-07-27T06:43:05.641Z,17.40
2017-07-27T06:45:33.267Z,13.17
2017-07-27T06:48:00.899Z,12.80
2017-07-27T06:50:28.559Z,14.00
2017-07-27T06:52:56.162Z,17.77
2017-07-27T06:55:23.779Z,12.80
2017-07-27T06:57:51.477Z,16.70
2017-07-27T07:00:19.114Z,12.37
2017-07-27T07:02:46.725Z,11.83
2017-07-27T07:05:14.411Z,12.70
2017-07-27T07:07:42.025Z,12.07
2017-07-27T07:10:09.649Z,10.63
2017-07-27T07:12:37.328Z,11.10
2017-07-27T07:15:04.956Z,11.03
2017-07-27T07:17:32.559Z,10.97
2017-07-27T07:20:00.247Z,11.30
2017-07-27T07:22:27.920Z,10.90
2017-07-27T07:24:55.539Z,11.77
2017-07-27T07:27:23.193Z,10.33
2017-07-27T07:29:50.817Z,11.17
2017-07-27T07:32:18.429Z,11.53
2017-07-27T07:34:46.112Z,12.00
2017-07-27T07:37:13.702Z,13.43
2017-07-27T07:39:41.314Z,11.87
2017-07-27T07:42:09.007Z,13.87
2017-07-27T07:44:36.636Z,13.10
2017-07-27T07:47:04.247Z,11.43
2017-07-27T07:49:31.923Z,12.17
2017-07-27T07:51:59.562Z,11.80
2017-07-27T07:54:27.172Z,10.60
2017-07-27T07:56:54.833Z,11.00
2017-07-27T07:59:22.497Z,12.40
2017-07-27T08:01:50.133Z,11.07
2017-07-27T08:04:17.805Z,14.30
2017-07-27T08:06:45.600Z,13.90
2017-07-27T08:09:25.125Z,10.73
2017-07-27T08:11:52.737Z,14.60
2017-07-27T08:14:20.363Z,11.60
2017-07-27T08:16:48.025Z,15.07
2017-07-27T08:19:15.644Z,12.47
2017-07-27T08:21:43.275Z,13.27
2017-07-27T08:24:11.011Z,13.17
2017-07-27T08:26:38.618Z,14.50
2017-07-27T08:29:06.224Z,13.93
2017-07-27T08:31:33.942Z,14.40
2017-07-27T08:34:01.542Z,13.93
2017-07-27T08:36:29.161Z,14.90
2017-07-27T08:38:56.839Z,13.17
2017-07-27T08:41:24.443Z,13.03
2017-07-27T08:43:52.065Z,12.40
2017-07-27T08:46:19.773Z,13.60
2017-07-27T08:48:47.375Z,13.93
2017-07-27T08:51:14.982Z,13.27
2017-07-27T08:53:42.654Z,12.87
2017-07-27T08:56:10.274Z,12.17
2017-07-27T08:58:37.873Z,9.90
2017-07-27T09:01:05.547Z,11.10
2017-07-27T09:03:33.171Z,10.70
2017-07-27T09:06:00.808Z,10.67
2017-07-27T09:08:28.505Z,12.23
2017-07-27T09:10:56.135Z,10.20
2017-07-27T09:13:23.741Z,10.33
2017-07-27T09:15:51.437Z,9.40
2017-07-27T09:18:19.061Z,10.57
2017-07-27T09:20:46.728Z,9.47
2017-07-27T09:23:14.411Z,11.50
2017-07-27T09:25:42.039Z,10.13
2017-07-27T09:28:09.731Z,10.30
2017-07-27T09:30:37.405Z,10.23
2017-07-27T09:33:05.024Z,11.80
2017-07-27T09:35:32.663Z,12.30
2017-07-27T09:38:00.337Z,14.53
2017-07-27T09:40:27.995Z,10.43
2017-07-27T09:42:55.622Z,9.80
2017-07-27T09:45:23.285Z,9.67
2017-07-27T09:47:50.921Z,10.33
2017-07-27T09:50:18.526Z,8.70
2017-07-27T09:52:46.199Z,9.40
2017-07-27T09:55:13.828Z,9.90
2017-07-27T09:57:46.832Z,10.83
2017-07-27T10:00:14.468Z,9.97
2017-07-27T10:02:42.093Z,9.70
2017-07-27T10:05:09.967Z,10.17
2017-07-27T10:07:37.628Z,8.17
2017-07-27T10:10:05.470Z,8.00
2017-07-27T10:12:33.285Z,9.47
2017-07-27T10:15:00.949Z,9.00
2017-07-27T10:17:28.563Z,9.03
2017-07-27T10:19:56.480Z,9.87
2017-07-27T10:22:24.416Z,8.30
2017-07-27T10:24:52.082Z,9.03
2017-07-27T10:27:19.740Z,10.30
2017-07-27T10:29:47.573Z,8.40
2017-07-27T10:32:15.319Z,10.57
2017-07-27T10:34:43.312Z,9.20
2017-07-27T10:37:11.013Z,9.50
2017-07-27T10:39:38.614Z,9.43
2017-07-27T10:42:06.279Z,10.07
2017-07-27T10:44:33.900Z,8.63
2017-07-27T10:47:01.541Z,10.20
2017-07-27T10:49:29.210Z,11.73
2017-07-27T10:51:56.819Z,11.20
2017-07-27T10:54:24.423Z,12.70
2017-07-27T10:56:52.104Z,9.87
2017-07-27T10:59:19.714Z,12.03
2017-07-27T11:01:47.323Z,10.20
2017-07-27T11:04:14.984Z,10.60
2017-07-27T11:06:42.747Z,12.97
2017-07-27T11:09:10.369Z,11.20
2017-07-27T11:11:38.067Z,12.70
2017-07-27T11:14:05.780Z,11.20
2017-07-27T11:16:33.598Z,11.57
2017-07-27T11:19:01.497Z,11.07
2017-07-27T11:21:29.230Z,10.77
2017-07-27T11:23:57.177Z,11.37
2017-07-27T11:26:24.915Z,8.60
2017-07-27T11:28:52.734Z,11.00
2017-07-27T11:31:20.398Z,17.53
2017-07-27T11:33:48.441Z,9.50
2017-07-27T11:36:16.331Z,11.80
2017-07-27T11:38:44.052Z,9.87
2017-07-27T11:41:11.859Z,12.37
2017-07-27T11:43:39.583Z,12.60
2017-07-27T11:46:07.191Z,11.33
2017-07-27T11:48:35.357Z,12.40
2017-07-27T11:51:03.330Z,10.77
2017-07-27T11:53:30.991Z,16.27
2017-07-27T11:55:59.064Z,11.77
2017-07-27T11:58:26.720Z,10.80
2017-07-27T12:00:54.731Z,12.30
2017-07-27T12:03:22.620Z,10.80
2017-07-27T12:05:50.252Z,9.77
2017-07-27T12:08:18.137Z,11.90
2017-07-27T12:10:46.122Z,11.43
2017-07-27T12:13:13.914Z,14.20
2017-07-27T12:15:41.527Z,11.23
2017-07-27T12:18:09.213Z,10.30
2017-07-27T12:20:36.817Z,12.70
2017-07-27T12:23:04.790Z,15.20
2017-07-27T12:25:32.479Z,8.57
2017-07-27T12:28:00.102Z,10.27
2017-07-27T12:30:27.831Z,10.10
2017-07-27T12:32:55.518Z,11.37
2017-07-27T12:35:23.469Z,10.47
2017-07-27T12:37:51.369Z,10.80
2017-07-27T12:40:19.424Z,10.57
2017-07-27T12:42:47.144Z,9.00
2017-07-27T12:45:14.964Z,9.00
2017-07-27T12:47:42.836Z,8.90
2017-07-27T12:50:10.499Z,8.43
2017-07-27T12:52:38.162Z,9.40
2017-07-27T12:55:05.827Z,7.97
2017-07-27T12:57:33.417Z,8.47
2017-07-27T13:00:01.143Z,9.20
2017-07-27T13:02:28.799Z,7.80
2017-07-27T13:04:56.654Z,8.47
2017-07-27T13:07:24.332Z,8.20
2017-07-27T13:09:52.412Z,9.80
2017-07-27T13:12:20.061Z,7.67
2017-07-27T13:14:47.733Z,7.97
2017-07-27T13:17:15.654Z,7.23
2017-07-27T13:19:43.670Z,7.77
2017-07-27T13:22:11.390Z,7.93
2017-07-27T13:24:39.022Z,7.60
2017-07-27T13:27:06.777Z,8.17
2017-07-27T13:29:34.374Z,8.00
2017-07-27T13:32:02.036Z,6.80
2017-07-27T13:34:29.640Z,8.17
2017-07-27T13:36:57.304Z,7.33
2017-07-27T13:39:25.379Z,6.90
2017-07-27T13:41:53.231Z,8.23
2017-07-27T13:44:20.904Z,7.10
2017-07-27T13:46:48.935Z,5.93
2017-07-27T13:49:16.643Z,6.60
2017-07-27T13:51:44.245Z,7.40
2017-07-27T13:54:11.965Z,8.70
2017-07-27T13:56:39.626Z,6.93
2017-07-27T13:59:07.350Z,6.47
2017-07-27T14:01:34.990Z,6.20
2017-07-27T14:04:02.598Z,6.80
2017-07-27T14:06:30.275Z,6.40
2017-07-27T14:08:58.119Z,6.17
2017-07-27T14:11:25.955Z,7.00
2017-07-27T14:13:53.546Z,6.90
2017-07-27T14:16:21.200Z,10.37
2017-07-27T14:18:48.836Z,10.00
2017-07-27T14:21:16.473Z,10.97
2017-07-27T14:23:44.168Z,7.73
2017-07-27T14:26:11.847Z,9.37
2017-07-27T14:28:39.454Z,9.77
2017-07-27T14:31:07.071Z,7.13
2017-07-27T14:33:34.731Z,6.87
2017-07-27T14:36:02.356Z,9.07
2017-07-27T14:38:31.449Z,7.67
2017-07-27T14:40:59.139Z,8.10
2017-07-27T14:43:26.743Z,8.30
2017-07-27T14:45:55.039Z,8.77
2017-07-27T14:48:23.467Z,8.53
2017-07-27T14:50:51.941Z,7.47
2017-07-27T14:53:19.578Z,7.50
2017-07-27T14:55:47.277Z,7.80
2017-07-27T14:58:14.885Z,8.60
2017-07-27T15:00:42.492Z,9.20
2017-07-27T15:03:10.154Z,8.40
2017-07-27T15:05:37.884Z,10.60
2017-07-27T15:08:06.238Z,8.60
2017-07-27T15:10:33.993Z,8.70
2017-07-27T15:13:01.759Z,9.67
2017-07-27T15:15:29.382Z,7.97
2017-07-27T15:17:57.113Z,8.17
2017-07-27T15:20:24.712Z,7.53
2017-07-27T15:22:52.304Z,8.43
2017-07-27T15:25:19.966Z,7.83
2017-07-27T15:27:47.557Z,8.17
2017-07-27T15:30:15.159Z,11.43
2017-07-27T15:32:42.922Z,10.43
2017-07-27T15:35:10.667Z,10.40
2017-07-27T15:37:38.291Z,10.47
2017-07-27T15:40:05.955Z,9.03
2017-07-27T15:42:33.604Z,9.70
2017-07-27T15:45:01.275Z,9.40
2017-07-27T15:47:28.923Z,8.80
2017-07-27T15:49:56.528Z,8.40
2017-07-27T15:52:24.154Z,8.40
2017-07-27T15:54:51.860Z,10.87
2017-07-27T15:57:19.475Z,9.30
2017-07-27T15:59:47.118Z,10.97
2017-07-27T16:02:14.804Z,9.00
2017-07-27T16:04:42.413Z,8.80
2017-07-27T16:07:10.037Z,8.97
2017-07-27T16:09:37.736Z,7.37
2017-07-27T16:12:05.511Z,9.00
2017-07-27T16:14:33.133Z,10.33
2017-07-27T16:17:00.876Z,9.70
2017-07-27T16:19:28.490Z,10.17
2017-07-27T16:21:56.096Z,9.33
2017-07-27T16:24:23.815Z,10.20
2017-07-27T16:26:51.422Z,9.90
2017-07-27T16:29:19.082Z,10.37
2017-07-27T16:31:47.151Z,9.63
2017-07-27T16:34:14.817Z,9.70
2017-07-27T16:36:42.681Z,11.40
2017-07-27T16:39:10.556Z,8.00
2017-07-27T16:41:38.159Z,9.87
2017-07-27T16:44:05.864Z,9.10
2017-07-27T16:46:33.773Z,10.00
2017-07-27T16:49:01.403Z,8.07
2017-07-27T16:51:29.249Z,12.50
2017-07-27T16:53:57.135Z,8.87
2017-07-27T16:56:24.854Z,8.53
2017-07-27T16:58:52.865Z,9.47
2017-07-27T17:01:20.643Z,8.63
2017-07-27T17:03:48.502Z,8.77
2017-07-27T17:06:16.481Z,8.90
2017-07-27T17:08:44.462Z,10.87
2017-07-27T17:11:12.057Z,11.87
2017-07-27T17:13:40.075Z,14.50
2017-07-27T17:16:07.942Z,12.40
2017-07-27T17:18:35.596Z,11.03
2017-07-27T17:21:03.262Z,10.33
2017-07-27T17:23:31.114Z,11.80
2017-07-27T17:25:58.791Z,11.20
2017-07-27T17:28:26.451Z,12.77
2017-07-27T17:30:54.343Z,10.40
2017-07-27T17:33:22.087Z,11.50
2017-07-27T17:35:50.026Z,12.30
2017-07-27T17:38:17.924Z,11.03
2017-07-27T17:40:45.762Z,12.67
2017-07-27T17:43:13.455Z,11.30
2017-07-27T17:45:41.492Z,13.00
2017-07-27T17:48:09.192Z,17.33
2017-07-27T17:50:36.850Z,12.03
2017-07-27T17:53:04.569Z,12.50
2017-07-27T17:55:32.290Z,19.73
2017-07-27T17:57:59.901Z,16.00
2017-07-27T18:00:27.749Z,16.10
2017-07-27T18:02:55.566Z,14.50
2017-07-27T18:05:23.213Z,14.70
2017-07-27T18:07:51.096Z,15.07
2017-07-27T18:10:18.753Z,15.80
2017-07-27T18:12:46.483Z,15.10
2017-07-27T18:15:14.192Z,15.57
2017-07-27T18:17:41.918Z,15.30
2017-07-27T18:20:09.812Z,14.70
2017-07-27T18:22:37.476Z,15.17
2017-07-27T18:25:05.115Z,15.40
2017-07-27T18:27:32.801Z,14.33
2017-07-27T18:30:00.824Z,14.00
2017-07-27T18:32:28.545Z,18.13
2017-07-27T18:34:56.395Z,17.43
2017-07-27T18:37:24.075Z,15.23
2017-07-27T18:39:51.935Z,17.47
2017-07-27T18:42:19.983Z,17.50
2017-07-27T18:44:47.932Z,16.37
2017-07-27T18:47:15.735Z,17.90
2017-07-27T18:49:43.506Z,16.07
2017-07-27T18:52:11.226Z,19.17
2017-07-27T18:54:39.200Z,16.60
2017-07-27T18:57:06.861Z,18.73
2017-07-27T18:59:34.640Z,15.33
2017-07-27T19:02:02.255Z,15.70
2017-07-27T19:04:29.872Z,15.50
2017-07-27T19:06:57.529Z,14.60
2017-07-27T19:09:25.156Z,15.73
2017-07-27T19:11:52.776Z,15.60
2017-07-27T19:14:20.784Z,15.07
2017-07-27T19:16:48.709Z,14.00
2017-07-27T19:19:16.305Z,15.23
2017-07-27T19:21:44.038Z,16.40
2017-07-27T19:24:11.692Z,15.00
2017-07-27T19:26:39.420Z,13.60
2017-07-27T19:29:07.235Z,16.63
2017-07-27T19:31:34.887Z,15.00
2017-07-27T19:34:02.556Z,15.00
2017-07-27T19:36:30.559Z,14.83
2017-07-27T19:38:58.282Z,12.40
2017-07-27T19:41:26.119Z,13.97
2017-07-27T19:43:53.756Z,14.97
2017-07-27T19:46:21.603Z,13.33
2017-07-27T19:48:49.341Z,14.53
2017-07-27T19:51:16.987Z,14.10
2017-07-27T19:53:44.587Z,14.23
2017-07-27T19:56:12.191Z,15.83
2017-07-27T19:58:39.845Z,14.63
2017-07-27T20:01:07.653Z,17.57
2017-07-27T20:03:35.375Z,17.30
2017-07-27T20:06:03.056Z,15.17
2017-07-27T20:08:31.047Z,14.10
2017-07-27T20:10:58.912Z,14.27
2017-07-27T20:13:26.982Z,14.40
2017-07-27T20:15:54.840Z,13.50
2017-07-27T20:18:22.575Z,29.83
2017-07-27T20:20:50.589Z,15.33
2017-07-27T20:23:18.252Z,16.13
2017-07-27T20:25:45.976Z,14.43
2017-07-27T20:28:13.779Z,17.27
2017-07-27T20:30:41.444Z,15.67
2017-07-27T20:33:09.098Z,18.00
2017-07-27T20:35:36.988Z,17.63
2017-07-27T20:38:04.659Z,16.43
2017-07-27T20:40:32.358Z,17.20
2017-07-27T20:43:00.140Z,15.60
2017-07-27T20:45:27.823Z,15.07
2017-07-27T20:47:55.443Z,17.10
2017-07-27T20:50:23.112Z,16.33
2017-07-27T20:52:50.720Z,25.10
2017-07-27T20:55:18.662Z,19.90
2017-07-27T20:57:46.647Z,17.43
2017-07-27T21:00:14.267Z,18.30
2017-07-27T21:02:41.891Z,17.80
2017-07-27T21:05:09.583Z,18.87
2017-07-27T21:07:37.196Z,17.77
2017-07-27T21:12:37.586Z,16.60
2017-07-27T21:15:05.200Z,17.80
2017-07-27T21:17:32.823Z,16.30
2017-07-27T21:20:00.490Z,17.40
2017-07-27T21:22:28.106Z,17.43
2017-07-27T21:24:56.373Z,16.40
2017-07-27T21:27:24.136Z,15.20
2017-07-27T21:29:51.747Z,17.37
2017-07-27T21:32:19.584Z,17.13
2017-07-27T21:34:47.400Z,17.30
2017-07-27T21:37:15.028Z,12.07
2017-07-27T21:39:42.662Z,14.40
2017-07-27T21:42:10.342Z,14.10
2017-07-27T21:44:37.950Z,14.17
2017-07-27T21:47:05.914Z,8.40
2017-07-27T21:49:33.587Z,13.63
2017-07-27T21:52:01.425Z,14.53
2017-07-27T21:54:29.187Z,11.80
2017-07-27T21:56:57.182Z,11.17
2017-07-27T21:59:24.928Z,6.93
2017-07-27T22:01:52.933Z,8.00
2017-07-27T22:04:20.783Z,7.73
2017-07-27T22:06:48.372Z,8.27
2017-07-27T22:09:16.110Z,5.80
2017-07-27T22:11:43.886Z,6.20
2017-07-27T22:14:11.510Z,5.37
2017-07-27T22:16:39.100Z,5.33
2017-07-27T22:19:06.762Z,5.17
2017-07-27T22:21:34.605Z,3.83
2017-07-27T22:24:02.295Z,4.53
2017-07-27T22:26:29.929Z,4.83
2017-07-27T22:28:57.806Z,4.80
2017-07-27T22:31:25.673Z,3.90
2017-07-27T22:33:53.414Z,3.73
2017-07-27T22:36:21.405Z,4.20
2017-07-27T22:38:49.148Z,6.60
2017-07-27T22:41:17.115Z,4.17
2017-07-27T22:43:45.028Z,3.23
2017-07-27T22:46:12.743Z,3.20
2017-07-27T22:48:40.737Z,4.20
2017-07-27T22:51:08.607Z,4.40
2017-07-27T22:53:36.487Z,3.70
2017-07-27T22:56:04.542Z,4.20
2017-07-27T22:58:32.144Z,2.93
2017-07-27T23:01:00.026Z,3.70
2017-07-27T23:03:27.957Z,3.73
2017-07-27T23:05:55.621Z,3.80
2017-07-27T23:08:23.399Z,3.30
2017-07-27T23:10:51.357Z,2.60
2017-07-27T23:13:18.974Z,3.87
2017-07-27T23:15:46.889Z,3.17
2017-07-27T23:18:14.925Z,3.20
2017-07-27T23:20:42.621Z,2.20
2017-07-27T23:23:10.279Z,2.50
2017-07-27T23:25:38.384Z,3.67
2017-07-27T23:28:06.209Z,3.27
2017-07-27T23:30:33.930Z,2.90
2017-07-27T23:33:01.926Z,2.53
2017-07-27T23:35:29.686Z,2.33
2017-07-27T23:37:57.657Z,2.60
2017-07-27T23:40:25.473Z,1.60
2017-07-27T23:42:53.419Z,2.77
2017-07-27T23:45:21.154Z,1.93
2017-07-27T23:47:49.124Z,2.53
2017-07-27T23:50:16.814Z,1.67
2017-07-27T23:52:44.463Z,2.17
2017-07-27T23:55:12.554Z,2.00
2017-07-27T23:57:40.216Z,1.73
